Time;durP1;ratioP1;P1;durP2;ratioP2;P2;SDS_P1;SDS_P2;PMS_P1;PMS_P2;Temp;Humidity;BMP_temperature;BMP_pressure;BME280_temperature;BME280_humidity;BME280_pressure;Samples;Min_cycle;Max_cycle;Signal;HPM_P1;HPM_P2
2022/06/06 00:02:15;;;;;;;12.00;8.58;;;;;;;14.82;90.96;145896.59;1809751;79;21023;-61
2022/06/06 00:04:42;;;;;;;9.83;8.13;;;;;;;14.79;91.32;145889.06;1797307;79;21041;-60
2022/06/06 00:07:09;;;;;;;12.90;8.50;;;;;;;14.76;91.51;145882.77;1777693;80;21029;-61
2022/06/06 00:09:38;;;;;;;12.07;9.15;;;;;;;14.74;91.81;145877.72;1777864;80;21569;-60
2022/06/06 00:12:07;;;;;;;16.25;9.28;;;;;;;14.71;91.97;145870.19;1778012;81;21527;-60
2022/06/06 00:14:35;;;;;;;11.53;9.40;;;;;;;14.67;92.24;145860.09;1774206;80;21053;-61
2022/06/06 00:17:03;;;;;;;15.23;9.00;;;;;;;14.62;92.55;145847.52;1769813;81;21038;-60
2022/06/06 00:19:30;;;;;;;11.83;8.50;;;;;;;14.58;93.05;145838.72;1770078;80;21484;-61
2022/06/06 00:21:57;;;;;;;17.27;9.83;;;;;;;14.54;93.39;145828.64;1769872;81;21480;-61
2022/06/06 00:24:24;;;;;;;15.00;9.00;;;;;;;14.51;93.72;145821.06;1769713;81;21531;-61
2022/06/06 00:26:51;;;;;;;12.95;9.83;;;;;;;14.49;94.22;145817.27;1770001;80;20998;-61
2022/06/06 00:29:21;;;;;;;17.55;10.13;;;;;;;14.47;94.41;145810.97;1769735;80;21022;-60
2022/06/06 00:34:49;;;;;;;12.80;9.25;;;;;;;14.34;94.90;145779.53;1769898;80;21488;-59
2022/06/06 00:37:25;;;;;;;10.95;7.53;;;;;;;14.29;95.25;145768.19;1770143;80;21538;-61
2022/06/06 00:39:55;;;;;;;16.67;8.68;;;;;;;14.32;95.27;145775.78;1769138;80;21085;-61
2022/06/06 00:42:26;;;;;;;11.33;8.35;;;;;;;14.39;94.98;145792.09;1768327;81;20991;-61
2022/06/06 00:45:19;;;;;;;13.45;9.48;;;;;;;14.44;94.59;145804.69;1768148;80;21041;-60
2022/06/06 00:48:04;;;;;;;16.12;10.40;;;;;;;14.49;94.22;145816.02;1767517;81;21476;-61
2022/06/06 00:50:51;;;;;;;12.05;9.50;;;;;;;14.50;93.83;145819.81;1748087;81;21018;-60
2022/06/06 00:53:38;;;;;;;11.00;7.55;;;;;;;14.48;93.85;145814.77;1769269;81;21097;-60
2022/06/06 00:56:28;;;;;;;9.23;7.58;;;;;;;14.45;94.05;145805.94;1769270;81;21046;-61
2022/06/06 00:59:00;;;;;;;10.23;7.62;;;;;;;14.45;94.06;145805.94;1769388;81;21026;-61
2022/06/06 01:01:28;;;;;;;10.88;8.55;;;;;;;14.46;94.18;145809.72;1767923;81;21590;-61
2022/06/06 01:04:00;;;;;;;13.30;9.33;;;;;;;14.48;93.90;145813.52;1768365;81;21105;-61
2022/06/06 01:06:31;;;;;;;11.73;8.53;;;;;;;14.51;93.86;145821.06;1768474;81;21034;-61
2022/06/06 01:09:00;;;;;;;13.00;9.20;;;;;;;14.56;94.00;145832.44;1739701;82;21045;-61
2022/06/06 01:11:27;;;;;;;14.65;8.88;;;;;;;14.57;93.93;145834.94;1739410;82;21053;-61
2022/06/06 01:13:56;;;;;;;11.65;8.35;;;;;;;14.56;93.96;145833.69;1739842;81;21050;-61
2022/06/06 01:16:42;;;;;;;13.35;8.13;;;;;;;14.58;94.09;145837.44;1747236;81;20998;-61
2022/06/06 01:19:34;;;;;;;12.73;8.05;;;;;;;14.59;94.05;145839.97;1747344;81;21033;-61
2022/06/06 01:22:27;;;;;;;;;;;;;;;14.61;94.08;145846.27;1780574;81;21033;-60
2022/06/06 01:25:24;;;;;;;12.28;9.15;;;;;;;14.67;93.77;145860.09;1777711;80;20120;-61
2022/06/06 01:28:05;;;;;;;15.83;9.15;;;;;;;14.69;93.39;145865.14;1776889;80;21523;-61
2022/06/06 01:30:39;;;;;;;12.18;8.60;;;;;;;14.67;93.29;145860.09;1698255;80;20998;-61
2022/06/06 01:33:14;;;;;;;12.05;8.20;;;;;;;14.67;93.24;145860.09;1776360;80;21487;-61
2022/06/06 01:35:45;;;;;;;12.53;8.60;;;;;;;14.68;93.30;145862.59;1772355;81;21087;-61
2022/06/06 01:38:16;;;;;;;11.22;8.00;;;;;;;14.70;93.35;145867.64;1776627;81;21024;-60
2022/06/06 01:41:05;;;;;;;13.78;9.40;;;;;;;14.73;93.26;145876.47;1776530;80;21077;-60
2022/06/06 01:43:41;;;;;;;13.70;8.63;;;;;;;14.75;92.65;145880.22;1776275;80;21037;-60
2022/06/06 01:46:22;;;;;;;13.62;9.38;;;;;;;14.77;92.11;145885.27;1777534;80;21033;-61
2022/06/06 01:48:51;;;;;;;13.85;8.33;;;;;;;14.77;91.81;145885.27;1778112;81;21486;-61
2022/06/06 01:51:22;;;;;;;12.53;8.18;;;;;;;14.76;92.12;145882.77;1777886;81;21052;-60
2022/06/06 01:53:49;;;;;;;;;;;;;;;14.79;92.29;145890.31;1780187;81;21511;-62
2022/06/06 01:56:22;;;;;;;12.65;7.83;;;;;;;14.80;92.17;145892.81;1778132;80;20105;-61
2022/06/06 01:58:49;;;;;;;14.05;8.88;;;;;;;14.82;92.47;145896.59;1777844;81;21515;-60
2022/06/06 02:01:17;;;;;;;14.90;8.25;;;;;;;14.81;92.53;145895.34;1777808;81;21049;-60
2022/06/06 02:03:46;;;;;;;12.00;8.65;;;;;;;14.81;93.19;145895.34;1776322;81;21014;-61
2022/06/06 02:06:14;;;;;;;12.45;6.92;;;;;;;14.84;93.26;145902.89;1776403;81;21100;-60
2022/06/06 02:08:42;;;;;;;22.02;9.08;;;;;;;14.87;93.44;145910.44;1776210;80;21002;-61
2022/06/06 02:11:11;;;;;;;10.25;8.20;;;;;;;14.89;93.16;145915.47;1776392;80;20962;-60
2022/06/06 02:13:39;;;;;;;14.60;10.10;;;;;;;14.92;93.23;145923.02;1776116;81;21076;-61
2022/06/06 02:16:06;;;;;;;15.32;10.23;;;;;;;14.92;93.33;145923.02;1754380;80;21081;-61
2022/06/06 02:18:33;;;;;;;15.43;9.00;;;;;;;14.91;93.24;145920.52;1750377;81;21495;-60
2022/06/06 02:21:01;;;;;;;16.37;9.98;;;;;;;14.92;93.11;145921.77;1750122;81;21484;-61
2022/06/06 02:23:29;;;;;;;10.10;8.30;;;;;;;14.94;93.00;145926.81;1750952;82;21467;-61
2022/06/06 02:25:57;;;;;;;14.43;9.30;;;;;;;14.97;93.34;145935.59;1751633;81;21061;-61
2022/06/06 02:28:25;;;;;;;16.87;10.45;;;;;;;15.01;93.84;145944.44;1751605;81;20985;-61
2022/06/06 02:30:52;;;;;;;15.30;8.78;;;;;;;15.04;93.82;145950.73;1750505;81;21024;-61
2022/06/06 02:33:18;;;;;;;15.83;9.78;;;;;;;15.06;94.17;145955.72;1750297;82;21029;-61
2022/06/06 02:35:45;;;;;;;17.07;8.30;;;;;;;15.10;94.62;145965.81;1750274;82;21041;-60
2022/06/06 02:38:14;;;;;;;11.73;8.18;;;;;;;15.12;94.51;145972.11;1750234;81;21050;-61
2022/06/06 02:40:41;;;;;;;15.25;9.20;;;;;;;15.14;93.88;145975.91;1751604;81;21467;-61
2022/06/06 02:43:08;;;;;;;13.40;9.33;;;;;;;15.18;93.25;145985.94;1751569;81;21061;-61
2022/06/06 02:45:36;;;;;;;12.50;9.25;;;;;;;15.22;93.23;145996.03;1751643;81;21068;-60
2022/06/06 02:48:03;;;;;;;15.63;10.00;;;;;;;15.23;93.15;145998.53;1751868;81;21044;-61
2022/06/06 02:50:32;;;;;;;18.95;11.10;;;;;;;15.24;93.43;146001.08;1751291;81;21009;-62
2022/06/06 02:52:59;;;;;;;17.85;10.55;;;;;;;15.25;93.56;146002.33;1751626;81;21556;-60
2022/06/06 02:55:28;;;;;;;14.47;9.43;;;;;;;15.26;93.38;146006.08;1751596;81;21069;-60
2022/06/06 02:57:55;;;;;;;15.50;9.23;;;;;;;15.31;93.44;146017.41;1751632;81;21076;-60
2022/06/06 03:00:28;;;;;;;17.70;10.43;;;;;;;15.33;93.08;146023.70;1750756;81;21034;-61
2022/06/06 03:02:55;;;;;;;16.20;10.45;;;;;;;15.35;92.78;146028.75;1750040;81;21472;-61
2022/06/06 03:05:43;;;;;;;15.45;10.65;;;;;;;15.36;92.73;146031.25;1750060;81;21515;-61
2022/06/06 03:09:07;;;;;;;18.17;11.15;;;;;;;15.39;92.36;146038.84;1749996;81;21089;-61
2022/06/06 03:11:49;;;;;;;19.48;11.15;;;;;;;15.39;92.36;146038.84;1748478;81;21031;-61
2022/06/06 03:14:46;;;;;;;14.15;10.32;;;;;;;15.41;92.44;146042.59;1732817;82;21096;-62
2022/06/06 03:23:22;;;;;;;16.73;10.72;;;;;;;15.48;92.63;146060.22;1741301;81;21042;-60
2022/06/06 03:26:13;;;;;;;13.38;10.08;;;;;;;15.48;92.63;146060.22;1741318;82;21069;-61
2022/06/06 03:29:05;;;;;;;13.15;9.75;;;;;;;15.52;94.10;146070.31;1740058;81;21006;-61
2022/06/06 03:32:22;;;;;;;13.53;9.43;;;;;;;15.55;94.31;146077.86;1741080;81;21507;-60
2022/06/06 03:35:18;;;;;;;14.95;10.30;;;;;;;15.59;94.20;146086.66;1741036;81;21053;-60
2022/06/06 03:38:00;;;;;;;13.65;10.75;;;;;;;15.62;94.25;146094.20;1741357;82;21049;-60
2022/06/06 03:41:06;;;;;;;16.75;10.48;;;;;;;15.59;93.99;146086.66;1709742;81;21480;-60
2022/06/06 03:43:47;;;;;;;14.63;9.63;;;;;;;15.59;92.29;146086.66;1741494;81;21029;-60
2022/06/06 03:46:46;;;;;;;12.78;8.75;;;;;;;15.59;92.29;146086.66;1738587;81;21519;-61
2022/06/06 03:49:49;;;;;;;13.60;9.55;;;;;;;15.64;91.26;146099.25;1741206;81;21068;-61
2022/06/06 03:52:47;;;;;;;14.20;10.08;;;;;;;15.70;90.54;146114.44;1692684;82;21556;-62
2022/06/06 03:55:25;;;;;;;13.08;9.48;;;;;;;15.77;90.55;146132.06;1741531;81;21100;-61
2022/06/06 03:57:56;;;;;;;17.48;10.65;;;;;;;15.78;90.46;146134.58;1741244;81;21042;-61
2022/06/06 04:00:24;;;;;;;14.93;10.60;;;;;;;15.80;90.41;146139.63;1741574;81;20978;-61
2022/06/06 04:02:55;;;;;;;14.73;9.75;;;;;;;15.82;90.23;146143.38;1741294;81;21544;-62
2022/06/06 04:05:22;;;;;;;17.57;11.03;;;;;;;15.86;89.91;146152.22;1739831;81;20990;-61
2022/06/06 04:07:50;;;;;;;17.73;11.80;;;;;;;15.88;89.86;146157.25;1739625;81;21038;-61
2022/06/06 04:10:18;;;;;;;13.72;10.43;;;;;;;15.92;89.44;146168.56;1739732;81;21042;-61
2022/06/06 04:13:26;;;;;;;17.98;10.10;;;;;;;16.00;89.21;146187.45;1741399;81;21010;-61
2022/06/06 04:15:59;;;;;;;18.42;11.57;;;;;;;16.05;89.71;146200.05;1737667;81;21055;-61
2022/06/06 04:18:38;;;;;;;14.20;11.35;;;;;;;16.05;89.71;146200.05;1736787;81;21014;-61
2022/06/06 04:21:40;;;;;;;18.98;11.70;;;;;;;16.11;89.08;146215.19;1740124;82;21046;-60
2022/06/06 04:24:43;;;;;;;18.23;11.65;;;;;;;16.17;89.11;146229.03;1738860;82;21086;-61
2022/06/06 04:27:39;;;;;;;15.10;12.23;;;;;;;16.25;89.19;146249.17;1738992;82;20999;-61
2022/06/06 04:30:24;;;;;;;19.05;11.20;;;;;;;16.41;88.13;146288.22;1740216;81;21049;-61
2022/06/06 04:33:09;;;;;;;22.25;11.00;;;;;;;16.41;88.13;146288.22;1737687;81;21038;-60
2022/06/06 04:35:59;;;;;;;15.40;11.12;;;;;;;16.48;88.47;146305.87;1738113;81;21559;-60
2022/06/06 04:38:56;;;;;;;19.70;10.88;;;;;;;16.57;88.04;146328.56;1718644;82;21044;-60
2022/06/06 04:41:31;;;;;;;13.85;11.30;;;;;;;16.82;86.87;146389.13;1708697;83;21042;-61
2022/06/06 04:44:18;;;;;;;18.23;11.50;;;;;;;16.82;86.87;146389.13;1713728;82;21006;-61
2022/06/06 04:46:56;;;;;;;15.95;10.70;;;;;;;16.90;85.69;146409.28;1678806;83;21079;-62
2022/06/06 04:49:28;;;;;;;19.48;10.65;;;;;;;17.07;84.20;146450.84;1681116;84;21541;-61
2022/06/06 04:51:57;;;;;;;15.05;11.05;;;;;;;17.07;84.20;146450.84;1681449;84;21091;-60
2022/06/06 04:54:25;;;;;;;17.60;10.40;;;;;;;17.16;84.09;146473.55;1681043;84;21489;-62
2022/06/06 04:56:53;;;;;;;16.10;9.13;;;;;;;17.26;83.85;146497.52;1681621;84;21068;-61
2022/06/06 04:59:23;;;;;;;14.18;9.95;;;;;;;17.36;81.28;146522.72;1681806;84;21086;-62
2022/06/06 05:01:50;;;;;;;13.75;7.97;;;;;;;17.63;79.43;146589.56;1682735;84;21031;-62
2022/06/06 05:04:18;;;;;;;13.45;8.28;;;;;;;17.63;79.43;146589.56;1703539;82;21069;-61
2022/06/06 05:07:19;;;;;;;11.43;8.23;;;;;;;17.74;78.14;146617.30;1718160;82;21020;-62
2022/06/06 05:10:17;;;;;;;14.20;7.20;;;;;;;17.86;77.56;146645.06;1701806;82;21037;-63
2022/06/06 05:13:13;;;;;;;10.85;6.33;;;;;;;17.99;75.49;146679.16;1722214;82;20992;-61
2022/06/06 05:15:49;;;;;;;9.70;5.80;;;;;;;18.09;71.20;146701.83;1694691;82;21608;-62
2022/06/06 05:18:51;;;;;;;8.48;4.90;;;;;;;18.16;68.92;146719.50;1729328;81;21046;-61
2022/06/06 05:21:55;;;;;;;8.05;5.00;;;;;;;18.20;68.04;146729.61;1728327;82;21529;-61
2022/06/06 05:24:55;;;;;;;5.90;4.08;;;;;;;18.29;65.96;146752.28;1738146;82;21048;-60
2022/06/06 05:27:52;;;;;;;9.63;4.08;;;;;;;18.41;65.99;146782.58;1749682;81;21040;-62
2022/06/06 05:30:51;;;;;;;6.30;3.85;;;;;;;18.51;62.41;146805.31;1750229;80;21059;-62
2022/06/06 05:33:29;;;;;;;5.28;3.45;;;;;;;18.58;62.89;146822.98;1750389;80;21463;-61
2022/06/06 05:36:38;;;;;;;5.12;2.72;;;;;;;18.70;60.63;146853.28;1750411;82;21031;-61
2022/06/06 05:39:25;;;;;;;4.15;2.92;;;;;;;18.79;58.25;146874.77;1750398;80;21079;-61
2022/06/06 05:42:15;;;;;;;4.03;2.67;;;;;;;18.88;57.40;146897.50;1750115;80;21013;-61
2022/06/06 05:44:59;;;;;;;4.25;2.80;;;;;;;18.94;56.72;146911.38;1743545;82;20992;-61
2022/06/06 05:47:40;;;;;;;7.15;3.37;;;;;;;19.03;56.71;146935.38;1750179;82;21004;-64
2022/06/06 05:50:36;;;;;;;6.95;3.30;;;;;;;19.28;56.35;146997.23;1749906;81;21560;-65
2022/06/06 05:53:36;;;;;;;5.50;3.05;;;;;;;20.28;55.12;147242.31;1710604;83;21087;-65
2022/06/06 05:56:33;;;;;;;7.85;3.00;;;;;;;22.55;48.83;147803.86;1714325;84;21107;-64
2022/06/06 05:59:20;;;;;;;8.15;3.02;;;;;;;24.64;43.93;148320.67;1682965;83;21013;-65
2022/06/06 06:02:03;;;;;;;4.33;2.67;;;;;;;26.36;40.71;148748.08;1690245;82;21082;-62
2022/06/06 06:04:39;;;;;;;5.25;2.40;;;;;;;28.02;37.60;149158.22;1736379;82;21059;-62
2022/06/06 06:07:20;;;;;;;5.50;2.33;;;;;;;29.29;34.58;149474.66;1710967;84;21054;-63
2022/06/06 06:10:12;;;;;;;5.28;2.08;;;;;;;30.04;32.31;149661.56;1713664;84;21059;-62
2022/06/06 06:13:33;;;;;;;6.58;2.35;;;;;;;30.72;31.30;149829.50;1713447;83;21038;-63
2022/06/06 06:16:05;;;;;;;4.55;1.90;;;;;;;31.30;29.82;149974.61;1715941;83;21527;-62
2022/06/06 06:18:48;;;;;;;6.95;2.00;;;;;;;31.85;29.22;150109.55;1757234;80;21030;-62
2022/06/06 06:21:25;;;;;;;5.17;1.57;;;;;;;32.39;28.11;150244.58;1786097;80;21625;-63
2022/06/06 06:24:03;;;;;;;4.47;1.70;;;;;;;32.76;26.37;150337.55;1785971;80;21185;-63
2022/06/06 06:26:31;;;;;;;5.10;2.08;;;;;;;32.97;26.72;150389.77;1780855;80;21029;-64
2022/06/06 06:29:09;;;;;;;5.25;1.67;;;;;;;33.18;26.58;150442.08;1780607;80;21490;-62
2022/06/06 06:31:50;;;;;;;5.50;1.57;;;;;;;34.04;25.17;150656.14;1778544;81;21002;-63
2022/06/06 06:34:53;;;;;;;7.75;1.70;;;;;;;34.26;24.02;150711.02;1766924;81;21054;-62
2022/06/06 06:37:41;;;;;;;3.25;1.42;;;;;;;34.24;23.69;150704.64;1768619;81;21037;-63
2022/06/06 06:40:37;;;;;;;5.92;1.65;;;;;;;34.03;24.20;150652.34;1769449;81;21041;-63
2022/06/06 06:43:41;;;;;;;4.42;1.70;;;;;;;34.07;23.82;150662.62;1769755;81;20994;-66
2022/06/06 06:46:22;;;;;;;3.77;1.62;;;;;;;34.07;23.59;150662.62;1768104;80;20985;-64
2022/06/06 06:48:52;;;;;;;2.90;1.55;;;;;;;34.12;23.63;150675.36;1768210;81;21030;-64
2022/06/06 06:51:26;;;;;;;5.22;1.37;;;;;;;34.10;23.81;150670.25;1768602;81;21018;-65
2022/06/06 06:54:50;;;;;;;2.62;1.30;;;;;;;34.06;23.36;150659.98;1694847;83;21524;-64
2022/06/06 06:57:39;;;;;;;3.80;1.50;;;;;;;34.45;23.46;150756.91;1769428;81;21014;-65
2022/06/06 08:10:34;;;;;;;2.72;1.35;;;;;;;32.77;23.57;150340.12;1678772;84;21496;-62
2022/06/06 08:13:27;;;;;;;4.28;1.32;;;;;;;31.36;24.67;149988.59;1693710;84;21520;-62
2022/06/06 08:16:16;;;;;;;2.65;1.50;;;;;;;31.25;25.19;149961.88;1662405;86;21082;-63
2022/06/06 08:19:25;;;;;;;4.22;1.40;;;;;;;31.62;25.24;150053.53;1665510;86;21014;-63
2022/06/06 08:21:52;;;;;;;2.55;1.30;;;;;;;32.12;24.58;150178.34;1685388;85;21509;-63
2022/06/06 08:24:39;;;;;;;2.95;1.57;;;;;;;31.92;24.45;150127.38;1653302;85;21054;-62
2022/06/06 08:27:10;;;;;;;2.87;1.40;;;;;;;31.87;24.80;150115.91;1652881;86;21061;-62
2022/06/06 08:29:42;;;;;;;2.90;1.60;;;;;;;31.71;25.28;150076.45;1652667;87;21062;-61
2022/06/06 08:32:10;;;;;;;3.10;1.63;;;;;;;32.49;24.63;150270.09;1653171;86;21050;-63
2022/06/06 08:34:38;;;;;;;2.22;1.32;;;;;;;33.26;24.14;150462.44;1652888;87;21018;-63
2022/06/06 08:37:36;;;;;;;3.35;1.40;;;;;;;34.00;22.60;150644.72;1652886;87;21038;-63
2022/06/06 08:40:31;;;;;;;4.03;1.80;;;;;;;33.89;22.81;150617.92;1652767;87;21561;-62
2022/06/06 08:43:18;;;;;;;2.37;1.20;;;;;;;33.79;22.89;150593.75;1652825;87;21105;-62
2022/06/06 08:46:14;;;;;;;3.92;1.50;;;;;;;33.92;23.33;150626.86;1652632;86;21693;-62
2022/06/06 08:52:20;;;;;;;1.92;1.30;;;;;;;33.22;23.17;150450.97;1609329;87;21077;-61
2022/06/06 08:55:02;;;;;;;2.35;1.30;;;;;;;33.40;23.50;150496.81;1652045;87;21122;-62
2022/06/06 08:57:59;;;;;;;2.62;1.40;;;;;;;34.61;22.71;150796.50;1652750;87;21066;-61
2022/06/06 09:00:58;;;;;;;2.30;1.30;;;;;;;35.57;21.74;151036.25;1652691;87;21042;-62
2022/06/06 09:03:54;;;;;;;2.83;1.60;;;;;;;35.44;21.61;151005.69;1655375;86;21088;-62
2022/06/06 09:06:57;;;;;;;6.25;1.98;;;;;;;35.25;21.60;150957.20;1681338;85;21063;-63
2022/06/06 09:10:00;;;;;;;4.47;1.57;;;;;;;34.54;21.95;150781.13;1681354;85;21047;-62
2022/06/06 09:12:39;;;;;;;4.25;1.40;;;;;;;32.88;23.97;150366.86;1642921;87;21050;-63
2022/06/06 09:15:37;;;;;;;4.28;1.60;;;;;;;31.97;24.42;150140.16;1697936;84;21063;-60
2022/06/06 09:18:39;;;;;;;2.75;1.70;;;;;;;31.50;25.13;150023.03;1678325;84;21131;-61
2022/06/06 09:21:24;;;;;;;4.00;1.95;;;;;;;30.93;25.51;149882.97;1702725;83;21068;-61
2022/06/06 09:24:33;;;;;;;2.87;1.60;;;;;;;30.00;27.17;149651.41;1659375;85;21529;-64
2022/06/06 09:27:22;;;;;;;3.72;2.00;;;;;;;29.02;27.91;149407.25;1663910;85;21037;-63
2022/06/06 09:29:55;;;;;;;4.83;2.10;;;;;;;28.41;29.21;149254.73;1702779;84;21060;-62
2022/06/06 09:32:56;;;;;;;2.65;1.70;;;;;;;28.14;29.56;149189.97;1701020;83;21092;-63
2022/06/06 09:36:08;;;;;;;3.80;1.80;;;;;;;27.83;29.69;149112.47;1658777;85;21032;-62
2022/06/06 09:39:05;;;;;;;5.60;2.00;;;;;;;26.97;30.60;148899.13;1660970;85;21458;-62
2022/06/06 09:41:58;;;;;;;3.92;2.22;;;;;;;26.56;31.62;148797.63;1679518;84;21515;-62
2022/06/06 09:44:59;;;;;;;5.85;1.90;;;;;;;26.37;32.79;148749.34;1650934;87;21104;-63
2022/06/06 09:47:57;;;;;;;3.52;1.70;;;;;;;26.20;33.52;148708.77;1662398;86;21040;-63
2022/06/06 09:50:59;;;;;;;2.98;2.00;;;;;;;25.83;33.38;148614.84;1676518;85;20996;-62
2022/06/06 10:00:46;;;;;;;8.18;1.85;;;;;;;24.50;34.88;148285.17;1621516;87;21365;-61
2022/06/06 10:03:52;;;;;;;5.53;2.12;;;;;;;24.36;34.65;148252.19;1632484;87;21098;-63
2022/06/06 10:06:31;;;;;;;2.98;1.92;;;;;;;24.29;34.90;148234.45;1629900;87;21126;-61
2022/06/06 10:09:15;;;;;;;3.85;1.82;;;;;;;24.33;34.90;148244.59;1618042;88;21104;-61
2022/06/06 10:12:14;;;;;;;4.17;2.10;;;;;;;24.29;35.17;148234.45;1634839;86;21023;-61
2022/06/06 10:15:24;;;;;;;4.25;2.20;;;;;;;24.25;35.31;148224.34;1606432;89;21061;-61
2022/06/06 10:18:08;;;;;;;3.40;1.80;;;;;;;24.07;35.23;148178.70;1602758;89;21155;-61
2022/06/06 10:21:13;;;;;;;4.28;2.33;;;;;;;23.88;35.40;148133.11;1608100;89;21101;-61
2022/06/06 10:23:51;;;;;;;3.87;1.80;;;;;;;23.67;35.86;148079.89;1608567;89;21116;-62
2022/06/06 10:27:16;;;;;;;5.17;2.05;;;;;;;23.44;35.62;148022.91;1576318;89;21578;-61
2022/06/06 10:30:18;;;;;;;4.95;2.12;;;;;;;23.38;36.18;148008.94;1589175;89;21137;-62
2022/06/06 10:33:40;;;;;;;4.30;1.92;;;;;;;23.67;35.23;148079.89;1608349;89;21092;-62
2022/06/06 10:36:35;;;;;;;6.55;1.80;;;;;;;23.87;33.80;148130.59;1610345;87;21106;-62
2022/06/06 10:39:22;;;;;;;3.00;1.75;;;;;;;23.59;33.92;148060.91;1615886;88;21111;-62
2022/06/06 10:42:35;;;;;;;5.67;2.20;;;;;;;23.45;34.40;148026.69;1615193;89;21125;-61
2022/06/06 10:45:38;;;;;;;8.30;1.90;;;;;;;23.48;35.22;148033.00;1607959;89;21103;-61
2022/06/06 10:48:19;;;;;;;7.10;1.90;;;;;;;23.55;34.68;148050.75;1615202;89;21091;-61
2022/06/06 10:54:26;;;;;;;3.05;1.62;;;;;;;23.96;34.30;148153.38;1607744;89;21116;-61
2022/06/06 10:57:28;;;;;;;6.05;1.70;;;;;;;24.18;33.97;148207.84;1632110;86;21559;-61
2022/06/06 11:00:16;;;;;;;4.58;2.00;;;;;;;24.16;34.17;148201.53;1605638;88;21182;-61
2022/06/06 11:03:25;;;;;;;6.20;1.98;;;;;;;24.15;34.54;148200.27;1607402;89;21553;-62
2022/06/06 11:06:18;;;;;;;3.08;1.98;;;;;;;24.17;34.67;148204.03;1609295;89;21041;-61
2022/06/06 11:09:35;;;;;;;3.42;2.10;;;;;;;24.24;34.67;148221.78;1605681;89;21096;-65
2022/06/06 11:12:44;;;;;;;7.45;2.22;;;;;;;24.15;34.66;148200.27;1631173;87;21506;-62
2022/06/06 11:15:11;;;;;;;5.25;2.52;;;;;;;24.35;34.53;148248.37;1633016;86;21079;-61
2022/06/06 11:18:05;;;;;;;5.35;2.12;;;;;;;24.63;34.07;148319.42;1625344;87;21122;-63
2022/06/06 11:21:11;;;;;;;4.90;2.10;;;;;;;24.76;34.08;148351.09;1639113;86;21586;-62
2022/06/06 11:24:27;;;;;;;3.47;2.12;;;;;;;24.95;33.50;148396.72;1632538;86;21152;-63
2022/06/06 11:27:28;;;;;;;5.72;2.42;;;;;;;25.12;33.28;148441.08;1614120;88;21032;-61
2022/06/06 11:30:04;;;;;;;4.65;2.58;;;;;;;25.31;33.50;148486.75;1617249;88;21671;-62
2022/06/06 11:32:56;;;;;;;4.95;2.10;;;;;;;25.22;33.72;148465.22;1617571;87;21161;-62
2022/06/06 11:36:09;;;;;;;3.90;2.20;;;;;;;25.05;33.91;148423.31;1617364;88;21104;-62
2022/06/06 11:39:07;;;;;;;4.33;2.33;;;;;;;24.98;33.77;148404.31;1659951;85;21179;-62
2022/06/06 11:42:15;;;;;;;4.62;1.85;;;;;;;24.88;33.38;148381.53;1635237;86;21333;-61
2022/06/06 11:45:21;;;;;;;3.95;2.08;;;;;;;24.91;33.14;148389.12;1628976;87;21074;-62
2022/06/06 11:48:31;;;;;;;3.85;2.05;;;;;;;25.00;32.75;148409.39;1628668;87;21083;-62
2022/06/06 11:51:15;;;;;;;4.37;2.00;;;;;;;25.05;32.91;148422.06;1607724;89;21077;-63
2022/06/06 11:54:25;;;;;;;12.65;3.17;;;;;;;25.22;33.21;148465.22;1590136;89;21107;-62
2022/06/06 11:57:22;;;;;;;6.35;2.25;;;;;;;25.46;33.18;148523.53;1607908;89;21156;-64
2022/06/06 12:00:11;;;;;;;4.50;2.17;;;;;;;25.40;33.82;148508.33;1601901;89;21097;-62
2022/06/06 12:03:23;;;;;;;3.95;1.92;;;;;;;25.06;34.49;148425.89;1603721;89;21069;-62
2022/06/06 12:06:29;;;;;;;4.20;2.47;;;;;;;24.74;34.62;148346.02;1634356;87;21102;-61
2022/06/06 12:09:36;;;;;;;3.25;1.98;;;;;;;24.46;35.04;148276.33;1644987;86;21114;-62
2022/06/06 12:12:47;;;;;;;2.85;1.70;;;;;;;24.30;35.21;148235.70;1637922;86;21093;-62
2022/06/06 12:15:54;;;;;;;4.55;2.12;;;;;;;24.33;35.07;148244.59;1628013;86;21114;-63
2022/06/06 12:19:05;;;;;;;3.90;1.82;;;;;;;24.72;34.63;148340.94;1644504;87;21128;-62
2022/06/06 12:21:54;;;;;;;4.97;2.22;;;;;;;24.98;33.65;148404.31;1650646;86;21032;-62
2022/06/06 12:24:35;;;;;;;4.12;1.90;;;;;;;25.35;33.41;148496.91;1649268;86;21076;-63
2022/06/06 12:27:16;;;;;;;5.05;1.98;;;;;;;25.66;32.50;148574.25;1646163;86;21037;-61
2022/06/06 12:30:09;;;;;;;4.05;1.98;;;;;;;25.73;32.49;148592.00;1648727;86;21071;-62
2022/06/06 12:33:02;;;;;;;4.72;1.90;;;;;;;25.78;32.78;148604.69;1628587;87;21090;-61
2022/06/06 12:35:42;;;;;;;4.08;2.12;;;;;;;26.05;31.66;148669.41;1628981;87;21098;-62
2022/06/06 12:38:47;;;;;;;3.25;1.92;;;;;;;26.04;31.78;148668.16;1632561;86;21130;-62
2022/06/06 12:41:46;;;;;;;7.20;1.80;;;;;;;26.17;31.24;148701.12;1628894;87;21068;-61
2022/06/06 12:44:47;;;;;;;4.70;2.15;;;;;;;26.40;31.21;148758.20;1645149;86;21199;-63
2022/06/06 12:47:55;;;;;;;3.77;1.90;;;;;;;26.59;31.55;148803.97;1657340;86;21155;-62
2022/06/06 12:50:51;;;;;;;4.35;2.12;;;;;;;26.97;30.49;148899.13;1605349;87;21866;-63
2022/06/06 12:53:32;;;;;;;5.08;2.33;;;;;;;27.13;30.08;148937.20;1615303;86;21239;-63
2022/06/06 12:56:37;;;;;;;6.30;2.10;;;;;;;26.68;31.30;148825.52;1640016;86;21057;-60
2022/06/06 12:59:36;;;;;;;4.08;2.02;;;;;;;26.33;31.94;148739.17;1646640;86;21553;-61
2022/06/06 13:02:32;;;;;;;;;;;;;;;26.08;31.85;148677.00;1642952;85;21596;-62
2022/06/06 13:05:27;;;;;;;3.92;2.10;;;;;;;25.96;32.67;148649.12;1639092;86;20120;-62
2022/06/06 13:08:41;;;;;;;5.00;2.02;;;;;;;25.93;32.56;148640.27;1643920;86;21079;-63
2022/06/06 13:11:36;;;;;;;4.80;2.10;;;;;;;25.82;32.09;148612.28;1612562;86;21556;-61
2022/06/06 13:14:47;;;;;;;4.00;1.98;;;;;;;25.68;31.60;148579.33;1633689;86;21119;-61
2022/06/06 13:17:51;;;;;;;4.00;1.90;;;;;;;25.30;32.22;148485.50;1579098;86;21717;-60
2022/06/06 13:20:47;;;;;;;3.85;2.10;;;;;;;25.37;32.23;148502.00;1658179;86;21017;-61
2022/06/06 13:23:33;;;;;;;4.10;1.80;;;;;;;25.44;31.75;148518.44;1600533;89;21600;-61
2022/06/06 13:26:38;;;;;;;4.67;1.98;;;;;;;25.32;31.70;148490.58;1550753;90;21162;-62
2022/06/06 13:29:07;;;;;;;4.62;1.95;;;;;;;25.41;31.79;148512.11;1616690;88;21103;-62
2022/06/06 13:32:01;;;;;;;4.35;1.82;;;;;;;25.51;31.51;148537.47;1646275;86;21643;-62
2022/06/06 13:34:52;;;;;;;2.83;1.70;;;;;;;25.47;31.66;148526.09;1598863;89;21127;-62
2022/06/06 13:37:36;;;;;;;5.17;2.10;;;;;;;25.53;31.60;148542.55;1615230;89;21813;-61
2022/06/06 13:40:32;;;;;;;3.35;1.50;;;;;;;25.59;31.89;148556.48;1599403;88;21512;-62
2022/06/06 13:43:28;;;;;;;6.33;1.95;;;;;;;25.58;32.15;148553.97;1625111;86;21604;-62
2022/06/06 13:46:38;;;;;;;4.53;1.85;;;;;;;25.54;31.93;148543.80;1600402;89;21096;-62
2022/06/06 13:49:31;;;;;;;3.50;1.80;;;;;;;25.52;31.97;148538.78;1602756;89;21233;-61
2022/06/06 13:52:29;;;;;;;7.08;1.77;;;;;;;25.69;31.57;148581.84;1606008;89;21100;-61
2022/06/06 13:54:56;;;;;;;6.83;1.87;;;;;;;26.09;30.63;148679.58;1602126;89;21629;-63
2022/06/06 13:57:27;;;;;;;3.50;1.67;;;;;;;25.94;30.88;148642.78;1595976;89;21119;-62
2022/06/06 14:00:12;;;;;;;3.50;1.90;;;;;;;25.74;31.35;148593.27;1626341;88;21116;-62
2022/06/06 14:03:07;;;;;;;2.77;1.67;;;;;;;25.60;31.40;148557.78;1610843;89;21122;-61
2022/06/06 14:06:09;;;;;;;3.33;1.55;;;;;;;25.55;31.71;148546.37;1615605;87;21631;-62
2022/06/06 14:08:54;;;;;;;4.83;2.08;;;;;;;25.52;31.09;148538.78;1612736;87;21602;-62
2022/06/06 14:11:46;;;;;;;3.92;1.95;;;;;;;25.24;31.47;148470.30;1616810;87;22243;-62
2022/06/06 14:14:17;;;;;;;4.10;2.12;;;;;;;25.11;32.12;148437.25;1603240;87;21613;-61
2022/06/06 14:16:49;;;;;;;4.15;2.00;;;;;;;24.94;32.69;148394.20;1615655;87;21150;-61
2022/06/06 14:19:37;;;;;;;4.20;2.30;;;;;;;24.83;33.28;148367.55;1618696;88;21106;-62
2022/06/06 14:22:06;;;;;;;4.05;1.95;;;;;;;24.72;33.69;148339.69;1609662;87;21081;-62
2022/06/06 14:24:36;;;;;;;4.17;1.98;;;;;;;24.54;33.90;148295.33;1616053;87;21494;-62